Time;durP1;ratioP1;P1;durP2;ratioP2;P2;SDS_P1;SDS_P2;PMS_P1;PMS_P2;Temp;Humidity;BMP_temperature;BMP_pressure;BME280_temperature;BME280_humidity;BME280_pressure;Samples;Min_cycle;Max_cycle;Signal;HPM_P1;HPM_P2
2023/09/18 00:00:11;;;;;;;25.52;20.73;;;;;;;26.69;49.21;101046.19;21042411;28;20032;-61
2023/09/18 00:10:16;;;;;;;25.23;19.48;;;;;;;26.75;49.30;101050.53;21082042;28;20089;-60
2023/09/18 00:20:22;;;;;;;21.85;17.10;;;;;;;26.75;49.16;101061.75;21082652;28;20036;-61
2023/09/18 00:30:23;;;;;;;20.87;16.93;;;;;;;26.69;49.22;101057.44;21081504;28;20391;-61
2023/09/18 00:40:25;;;;;;;17.15;14.93;;;;;;;26.76;49.26;101073.84;21081672;28;20044;-61
2023/09/18 00:50:30;;;;;;;19.33;15.95;;;;;;;26.77;49.23;101070.72;21080960;28;20090;-60
2023/09/18 01:00:31;;;;;;;17.08;13.73;;;;;;;26.74;49.29;101070.50;21079474;28;20036;-61
2023/09/18 01:10:49;;;;;;;16.20;13.80;;;;;;;26.75;49.35;101078.59;21076965;28;20490;-61
2023/09/18 01:20:50;;;;;;;15.40;12.80;;;;;;;26.77;49.33;101083.91;21078275;28;20047;-60
2023/09/18 01:30:54;;;;;;;13.65;11.45;;;;;;;26.79;49.49;101074.00;21073772;28;20352;-62
2023/09/18 01:40:59;;;;;;;14.00;11.63;;;;;;;26.79;49.25;101068.41;21076063;28;20044;-61
2023/09/18 01:51:00;;;;;;;12.63;10.77;;;;;;;26.70;49.41;101053.47;21076608;28;20036;-61
2023/09/18 02:01:02;;;;;;;12.23;10.80;;;;;;;26.78;49.42;101061.13;21053808;28;20032;-62
2023/09/18 02:11:04;;;;;;;10.93;9.32;;;;;;;26.81;49.62;101054.06;21071155;28;20391;-61
2023/09/18 02:21:05;;;;;;;11.18;9.30;;;;;;;26.83;50.55;101041.34;21073815;28;20044;-61
2023/09/18 02:31:08;;;;;;;10.48;8.75;;;;;;;26.82;51.25;101034.09;21073716;28;20395;-60
2023/09/18 02:41:10;;;;;;;10.75;8.65;;;;;;;26.85;51.79;101041.06;21089855;28;20047;-60
2023/09/18 02:51:11;;;;;;;11.27;9.07;;;;;;;26.85;51.87;101038.25;21085845;28;20048;-61
2023/09/18 03:01:12;;;;;;;9.30;8.27;;;;;;;26.88;51.88;101025.53;21083206;28;20103;-61
2023/09/18 03:11:14;;;;;;;10.30;8.18;;;;;;;26.76;51.64;100995.25;21088224;28;20024;-61
2023/09/18 03:21:18;;;;;;;9.45;7.45;;;;;;;26.82;51.68;100999.56;21082900;28;20044;-61
2023/09/18 03:31:22;;;;;;;7.82;7.00;;;;;;;26.88;51.73;101017.94;21087119;28;20089;-60
2023/09/18 03:41:26;;;;;;;7.75;6.93;;;;;;;26.90;51.78;101009.22;21085802;28;20044;-60
2023/09/18 03:51:29;;;;;;;7.55;6.63;;;;;;;26.89;51.58;100987.88;21084757;28;20040;-60
2023/09/18 04:01:36;;;;;;;8.20;6.75;;;;;;;26.91;51.50;101008.06;21084387;28;20106;-61
2023/09/18 04:11:37;;;;;;;;;;;;;;;26.90;51.73;100996.00;21083655;28;20040;-61
2023/09/18 04:21:38;;;;;;;8.07;6.60;;;;;;;26.96;51.32;100989.09;21082705;28;20364;-61
2023/09/18 04:31:40;;;;;;;6.90;6.18;;;;;;;26.93;51.54;100991.69;21081880;28;20040;-61
2023/09/18 04:41:41;;;;;;;6.55;5.85;;;;;;;26.82;51.29;100977.09;21079945;28;20052;-61
2023/09/18 04:51:43;;;;;;;6.53;5.30;;;;;;;26.94;51.40;100990.53;21078614;28;20036;-61
2023/09/18 05:01:48;;;;;;;6.00;5.40;;;;;;;26.94;51.24;100991.41;21078030;28;20048;-61
2023/09/18 05:11:49;;;;;;;5.72;5.10;;;;;;;26.92;51.28;100978.81;21078120;28;20032;-60
2023/09/18 05:21:50;;;;;;;6.32;5.40;;;;;;;26.94;51.31;100974.53;21073887;28;20051;-59
2023/09/18 05:31:52;;;;;;;5.88;5.25;;;;;;;26.95;51.19;100964.13;21074952;28;20552;-61
2023/09/18 05:41:53;;;;;;;6.35;4.88;;;;;;;26.94;51.18;100940.00;21074306;28;20044;-60
2023/09/18 05:51:54;;;;;;;6.53;4.97;;;;;;;26.93;51.18;100910.25;21075992;28;20051;-60
2023/09/18 06:01:56;;;;;;;6.03;4.70;;;;;;;26.91;51.12;100902.16;21076141;28;20087;-60
2023/09/18 06:11:58;;;;;;;5.25;4.75;;;;;;;26.96;51.14;100915.25;21086510;28;20047;-61
2023/09/18 06:21:59;;;;;;;4.53;4.07;;;;;;;26.96;51.15;100906.81;21092309;28;20441;-60
2023/09/18 06:32:01;;;;;;;6.07;4.85;;;;;;;26.95;51.16;100897.56;21091806;28;20475;-61
2023/09/18 06:42:03;;;;;;;4.70;4.18;;;;;;;26.94;51.16;100876.25;21089236;28;20429;-60
2023/09/18 06:52:06;;;;;;;5.07;4.18;;;;;;;26.95;51.15;100874.28;21085261;28;20039;-60
2023/09/18 07:02:07;;;;;;;4.43;4.03;;;;;;;26.92;50.97;100855.25;21086229;28;20098;-61
2023/09/18 07:12:11;;;;;;;4.93;4.22;;;;;;;26.94;50.96;100866.97;21089100;28;20028;-61
2023/09/18 07:22:13;;;;;;;4.30;3.90;;;;;;;26.89;51.05;100834.25;21087502;28;20043;-61
2023/09/18 07:32:14;;;;;;;4.43;4.03;;;;;;;26.95;50.87;100843.41;21086708;28;20036;-61
2023/09/18 07:42:16;;;;;;;4.28;3.88;;;;;;;26.94;50.90;100841.72;21083364;28;20036;-61
2023/09/18 07:52:20;;;;;;;4.63;4.22;;;;;;;26.82;51.00;100826.31;21077593;28;20098;-61
2023/09/18 08:02:23;;;;;;;4.13;3.72;;;;;;;26.93;50.90;100831.63;21075330;28;20051;-61
2023/09/18 08:12:25;;;;;;;4.10;3.70;;;;;;;26.94;50.82;100819.25;21080653;28;20092;-61
2023/09/18 08:22:27;;;;;;;4.05;3.65;;;;;;;26.93;51.07;100814.78;21079051;28;20383;-62
2023/09/18 08:32:33;;;;;;;3.63;3.20;;;;;;;26.92;50.81;100813.16;21077987;28;20479;-61
2023/09/18 08:42:39;;;;;;;4.23;3.50;;;;;;;26.93;50.89;100814.78;21014535;28;1824594;-61
2023/09/18 08:52:41;;;;;;;3.58;3.28;;;;;;;26.92;51.00;100808.34;21076673;28;20048;-60
2023/09/18 09:02:44;;;;;;;3.83;3.30;;;;;;;26.92;50.83;100807.53;21074268;28;20044;-61
2023/09/18 09:12:54;;;;;;;3.60;3.30;;;;;;;26.91;50.84;100791.84;21079097;28;20058;-60
2023/09/18 09:23:03;;;;;;;3.67;3.38;;;;;;;26.75;50.88;100768.97;21077951;28;20036;-60
2023/09/18 09:33:07;;;;;;;3.75;3.45;;;;;;;26.91;50.86;100789.03;21077249;28;20040;-60
2023/09/18 09:43:11;;;;;;;3.17;2.83;;;;;;;26.84;50.95;100775.44;21077068;28;20051;-61
2023/09/18 09:53:15;;;;;;;3.53;3.20;;;;;;;26.81;50.86;100778.94;21074459;28;20052;-60
2023/09/18 10:03:20;;;;;;;3.20;2.90;;;;;;;26.90;50.93;100795.81;21061350;28;20567;-60
2023/09/18 10:13:46;;;;;;;3.50;3.20;;;;;;;26.82;50.86;100769.34;21076248;28;20044;-61
2023/09/18 10:23:59;;;;;;;3.55;3.25;;;;;;;26.89;50.97;100771.66;21074959;28;20036;-60
2023/09/18 10:34:03;;;;;;;3.30;3.00;;;;;;;26.89;50.90;100782.91;21069735;28;20097;-61
2023/09/18 10:44:05;;;;;;;3.42;2.90;;;;;;;26.75;51.15;100755.78;21073996;28;20055;-60
2023/09/18 10:54:11;;;;;;;2.90;2.60;;;;;;;26.74;51.04;100740.09;21077106;28;20073;-61
2023/09/18 11:04:14;;;;;;;2.88;2.55;;;;;;;26.88;50.73;100758.78;21086931;28;20040;-61
2023/09/18 11:14:15;;;;;;;3.30;3.00;;;;;;;26.89;50.72;100757.63;21086531;28;20047;-60
2023/09/18 11:24:22;;;;;;;3.33;3.03;;;;;;;26.84;50.81;100745.41;21084694;28;20075;-59
2023/09/18 11:34:38;;;;;;;3.37;3.07;;;;;;;26.83;50.76;100729.72;21078202;28;20067;-60
2023/09/18 11:44:41;;;;;;;3.30;3.00;;;;;;;26.84;50.83;100739.78;21081121;28;20637;-60
2023/09/18 11:54:46;;;;;;;2.97;2.72;;;;;;;26.84;50.93;100727.72;21080297;28;20403;-59
2023/09/18 12:04:48;;;;;;;3.00;2.47;;;;;;;26.84;50.87;100714.50;21073399;28;20048;-59
2023/09/18 12:14:52;;;;;;;3.05;2.75;;;;;;;26.84;51.00;100694.84;21070749;28;20395;-59
2023/09/18 12:24:54;;;;;;;3.30;3.00;;;;;;;26.80;50.83;100684.63;21079972;28;20081;-59
2023/09/18 12:34:58;;;;;;;2.78;2.58;;;;;;;26.84;50.84;100678.00;21073438;28;20036;-59
2023/09/18 12:44:59;;;;;;;2.42;2.22;;;;;;;26.84;51.05;100706.09;21077370;28;20048;-59
2023/09/18 12:55:03;;;;;;;3.30;2.75;;;;;;;26.83;50.91;100721.28;21080040;28;20052;-60
2023/09/18 13:05:05;;;;;;;3.00;2.70;;;;;;;26.76;50.82;100704.13;21079701;28;20047;-60
2023/09/18 13:15:12;;;;;;;2.97;2.38;;;;;;;26.71;50.74;100712.69;21077636;28;20046;-60
2023/09/18 13:25:19;;;;;;;;;;;;;;;26.82;50.78;100724.44;21077691;28;20101;-60
2023/09/18 13:35:23;;;;;;;2.60;2.40;;;;;;;26.86;50.93;100692.56;21072898;28;19916;-60
2023/09/18 13:45:37;;;;;;;2.67;2.47;;;;;;;26.81;50.98;100715.19;21072334;28;20098;-58
2023/09/18 13:55:41;;;;;;;3.03;2.58;;;;;;;26.82;50.75;100738.47;21070743;28;20541;-59
2023/09/18 14:05:43;;;;;;;4.15;2.63;;;;;;;26.80;51.18;100752.84;21023466;28;20032;-59
2023/09/18 14:15:45;;;;;;;4.00;3.10;;;;;;;26.79;51.20;100745.53;21058976;28;20044;-59
2023/09/18 14:25:46;;;;;;;4.38;2.80;;;;;;;26.80;51.50;100726.72;21068951;28;20441;-58
2023/09/18 14:35:47;;;;;;;3.60;2.65;;;;;;;26.80;51.48;100710.72;21084317;28;20372;-59
2023/09/18 14:45:49;;;;;;;3.30;3.00;;;;;;;26.81;51.60;100717.16;21086728;28;20048;-59
2023/09/18 14:55:55;;;;;;;3.70;3.28;;;;;;;26.80;51.49;100716.34;21058666;28;20044;-58
2023/09/18 15:06:02;;;;;;;4.32;2.97;;;;;;;26.80;51.72;100705.13;21045688;28;20093;-59
2023/09/18 15:16:03;;;;;;;;;;;;;;;26.79;51.50;100699.81;21062741;28;20078;-59
2023/09/18 15:26:04;;;;;;;5.75;3.13;;;;;;;26.84;51.67;100717.31;21067913;28;19916;-59
2023/09/18 15:36:09;;;;;;;3.25;2.85;;;;;;;26.82;51.51;100707.59;21060529;28;20040;-64
2023/09/18 15:46:13;;;;;;;3.17;2.80;;;;;;;26.80;51.88;100688.28;21056094;28;20127;-59
2023/09/18 15:56:15;;;;;;;3.58;2.90;;;;;;;26.81;51.67;100641.38;21081079;28;20097;-59
2023/09/18 16:06:18;;;;;;;6.10;3.15;;;;;;;26.76;52.23;100642.34;21069129;28;20055;-59
2023/09/18 16:16:23;;;;;;;3.42;2.72;;;;;;;26.67;52.15;100633.09;21078675;28;20047;-59
2023/09/18 16:26:24;;;;;;;2.78;2.47;;;;;;;26.82;52.20;100646.66;21064548;28;20044;-59
2023/09/18 16:36:28;;;;;;;3.90;2.70;;;;;;;26.79;52.03;100649.28;21069123;28;20442;-59
2023/09/18 16:46:29;;;;;;;4.05;2.80;;;;;;;26.81;52.00;100661.84;21067196;28;20040;-59
2023/09/18 16:56:31;;;;;;;3.47;3.00;;;;;;;26.82;51.99;100655.06;21068259;28;20468;-60
2023/09/18 17:06:34;;;;;;;2.85;2.55;;;;;;;26.83;52.12;100661.50;21063063;28;20036;-60
2023/09/18 17:16:36;;;;;;;4.22;3.17;;;;;;;26.83;52.29;100665.13;21051341;28;20078;-60
2023/09/18 17:26:37;;;;;;;3.35;2.65;;;;;;;26.84;52.08;100654.72;21058703;28;20384;-60
2023/09/18 17:36:38;;;;;;;6.45;2.60;;;;;;;26.84;52.11;100644.31;21066568;28;20609;-59
2023/09/18 17:46:45;;;;;;;3.45;3.05;;;;;;;26.84;52.45;100629.47;21038066;28;20082;-60
2023/09/18 17:56:46;;;;;;;3.47;2.53;;;;;;;26.82;52.51;100624.19;21060610;28;20044;-60
2023/09/18 18:06:48;;;;;;;2.60;2.40;;;;;;;26.81;52.54;100628.16;21074307;28;20052;-59
2023/09/18 18:16:50;;;;;;;3.28;2.95;;;;;;;26.84;52.45;100627.47;21066092;28;20519;-59
2023/09/18 18:26:53;;;;;;;3.75;2.58;;;;;;;26.85;52.68;100612.31;21064774;28;20835;-59
2023/09/18 18:36:55;;;;;;;4.72;3.03;;;;;;;26.84;52.40;100619.06;21084458;28;20180;-59
2023/09/18 18:46:57;;;;;;;3.50;3.20;;;;;;;26.78;52.51;100606.34;21082120;28;20093;-60
2023/09/18 18:57:02;;;;;;;3.58;3.10;;;;;;;26.85;52.67;100620.72;21054827;28;20461;-59
2023/09/18 19:07:05;;;;;;;3.17;2.88;;;;;;;26.64;52.56;100588.84;21081565;28;20410;-60
2023/09/18 19:17:13;;;;;;;3.85;2.70;;;;;;;26.84;52.50;100618.22;21044742;28;20472;-59
2023/09/18 19:27:14;;;;;;;3.50;3.00;;;;;;;26.83;52.66;100609.00;21075690;28;20074;-58
2023/09/18 19:37:17;;;;;;;5.07;3.20;;;;;;;26.83;52.75;100609.00;21076186;28;20040;-59
2023/09/18 19:47:19;;;;;;;4.68;3.25;;;;;;;26.84;52.63;100615.44;21069651;28;21444;-58
2023/09/18 19:57:20;;;;;;;3.80;3.13;;;;;;;26.84;52.90;100615.44;21080142;28;20449;-59
2023/09/18 20:07:21;;;;;;;3.97;2.47;;;;;;;26.88;52.65;100621.22;21086242;28;20107;-59
2023/09/18 20:17:23;;;;;;;2.80;2.53;;;;;;;26.88;52.45;100632.44;21083079;28;20371;-58
2023/09/18 20:27:24;;;;;;;3.78;2.63;;;;;;;26.74;52.42;100599.72;21081067;28;20032;-58
2023/09/18 20:37:26;;;;;;;3.63;2.90;;;;;;;26.88;52.33;100621.22;21081523;28;20102;-58
2023/09/18 20:47:28;;;;;;;2.85;2.55;;;;;;;26.81;52.33;100614.13;21080222;28;20372;-59
2023/09/18 20:57:32;;;;;;;2.88;2.60;;;;;;;26.88;52.29;100621.22;21079474;28;20075;-59
2023/09/18 21:07:33;;;;;;;2.80;2.53;;;;;;;26.88;52.33;100626.84;21077527;28;20391;-58
2023/09/18 21:17:34;;;;;;;2.88;2.55;;;;;;;26.89;52.09;100639.72;21074966;28;20097;-60
2023/09/18 21:27:36;;;;;;;2.75;2.25;;;;;;;26.88;52.12;100624.84;21077394;28;20063;-59
2023/09/18 21:37:37;;;;;;;2.67;2.40;;;;;;;26.89;52.13;100622.84;21075159;28;20048;-60
2023/09/18 21:47:40;;;;;;;3.20;2.20;;;;;;;26.77;52.21;100621.53;21071419;28;20495;-60
2023/09/18 21:57:44;;;;;;;2.95;2.30;;;;;;;26.88;51.97;100657.72;21075784;28;20042;-59
2023/09/18 22:07:45;;;;;;;2.58;2.22;;;;;;;26.90;52.08;100666.66;21066779;28;20531;-60
2023/09/18 22:17:48;;;;;;;3.20;2.03;;;;;;;26.90;51.80;100663.84;21073991;28;20164;-61
2023/09/18 22:27:49;;;;;;;2.85;2.10;;;;;;;26.90;51.93;100680.69;21072493;28;20066;-60
2023/09/18 22:37:59;;;;;;;2.13;1.85;;;;;;;26.89;51.91;100684.63;21074879;28;20036;-60
2023/09/18 22:48:38;;;;;;;2.78;1.80;;;;;;;26.82;52.03;100688.75;21068149;28;20052;-61
2023/09/18 22:58:45;;;;;;;1.92;1.73;;;;;;;26.90;51.76;100700.34;21074890;28;20044;-60
2023/09/18 23:08:49;;;;;;;5.38;1.88;;;;;;;26.89;51.64;100713.53;21077238;28;20105;-59
2023/09/18 23:18:51;;;;;;;3.47;2.30;;;;;;;26.85;51.66;100695.72;21068288;28;20318;-59
2023/09/18 23:28:52;;;;;;;2.63;1.70;;;;;;;26.86;51.72;100719.81;21040594;28;20044;-59
2023/09/18 23:38:54;;;;;;;1.92;1.83;;;;;;;26.90;51.78;100734.03;21086067;28;20039;-59
2023/09/18 23:49:01;;;;;;;3.17;2.13;;;;;;;26.86;51.78;100743.09;21083492;28;20494;-59
2023/09/18 23:59:07;;;;;;;2.13;1.88;;;;;;;26.88;51.70;100767.22;21084292;28;20113;-60
